Time;durP1;ratioP1;P1;durP2;ratioP2;P2;SDS_P1;SDS_P2;PMS_P1;PMS_P2;Temp;Humidity;BMP_temperature;BMP_pressure;BME280_temperature;BME280_humidity;BME280_pressure;Samples;Min_cycle;Max_cycle;Signal;HPM_P1;HPM_P2
2021/05/02 00:01:23;;;;;;;37.58;23.77;;;9.30;99.90;;;;;;4941403;29;20492;-78
2021/05/02 00:03:49;;;;;;;36.35;24.40;;;9.30;99.90;;;;;;4941995;29;20028;-78
2021/05/02 00:06:16;;;;;;;34.35;23.58;;;9.30;99.90;;;;;;4940920;29;20039;-79
2021/05/02 00:08:42;;;;;;;36.55;23.58;;;9.40;99.90;;;;;;4942617;29;20032;-78
2021/05/02 00:11:12;;;;;;;37.92;23.95;;;9.40;99.90;;;;;;4943811;29;20040;-79
2021/05/02 00:13:39;;;;;;;34.22;23.77;;;9.40;99.90;;;;;;4943105;29;20030;-77
2021/05/02 00:16:06;;;;;;;33.88;23.60;;;9.40;99.90;;;;;;4943810;29;20482;-79
2021/05/02 00:18:36;;;;;;;34.60;22.15;;;9.30;99.90;;;;;;4940327;29;20566;-77
2021/05/02 00:21:06;;;;;;;36.47;24.10;;;9.30;99.90;;;;;;4936736;29;20027;-76
2021/05/02 00:23:35;;;;;;;34.47;22.98;;;9.30;99.90;;;;;;4942173;29;20054;-77
2021/05/02 00:26:02;;;;;;;34.80;23.50;;;9.30;99.90;;;;;;4941408;29;20027;-78
2021/05/02 00:28:30;;;;;;;37.55;24.80;;;9.30;99.90;;;;;;4941556;29;20033;-77
2021/05/02 00:30:57;;;;;;;39.83;25.02;;;9.30;99.90;;;;;;4941400;29;20052;-77
2021/05/02 00:33:23;;;;;;;35.40;23.80;;;9.30;99.90;;;;;;4941505;29;20031;-78
2021/05/02 00:35:50;;;;;;;35.22;25.30;;;9.20;99.90;;;;;;4942933;29;20178;-77
2021/05/02 00:38:16;;;;;;;35.13;23.38;;;9.20;99.90;;;;;;4942641;29;20039;-78
2021/05/02 00:40:43;;;;;;;38.72;24.13;;;9.20;99.90;;;;;;4946526;29;20075;-78
2021/05/02 00:43:13;;;;;;;35.83;24.67;;;9.30;99.90;;;;;;4949498;29;20038;-77
2021/05/02 00:46:05;;;;;;;35.90;25.13;;;9.30;99.90;;;;;;4949928;29;20043;-79
2021/05/02 00:48:51;;;;;;;35.38;24.63;;;9.20;99.90;;;;;;4930281;29;20042;-77
2021/05/02 00:51:18;;;;;;;37.22;25.00;;;9.10;99.90;;;;;;4950406;29;20039;-77
2021/05/02 00:53:57;;;;;;;36.47;24.42;;;9.10;99.90;;;;;;4928159;29;20031;-76
2021/05/02 00:56:25;;;;;;;35.30;24.80;;;9.10;99.90;;;;;;4947165;29;20038;-78
2021/05/02 00:59:07;;;;;;;38.75;24.30;;;9.00;99.90;;;;;;4950120;29;20032;-77
2021/05/02 01:01:42;;;;;;;37.33;24.15;;;9.00;99.90;;;;;;4950913;29;20035;-77
2021/05/02 01:04:10;;;;;;;38.88;24.77;;;9.00;99.90;;;;;;4948815;29;20043;-77
2021/05/02 01:06:39;;;;;;;36.42;26.20;;;9.00;99.90;;;;;;4945306;29;20032;-79
2021/05/02 01:09:06;;;;;;;40.65;25.70;;;9.00;99.90;;;;;;4941434;29;20033;-77
2021/05/02 01:11:36;;;;;;;39.85;26.85;;;9.00;99.90;;;;;;4950373;29;20083;-78
2021/05/02 01:14:03;;;;;;;40.15;26.40;;;9.00;99.90;;;;;;4948729;29;20054;-77
2021/05/02 01:16:33;;;;;;;45.38;28.15;;;8.90;99.90;;;;;;4947699;29;20031;-77
2021/05/02 01:19:04;;;;;;;39.10;26.33;;;8.90;99.90;;;;;;4948008;29;20051;-78
2021/05/02 01:21:35;;;;;;;41.20;25.57;;;8.90;99.90;;;;;;4945085;29;20060;-77
2021/05/02 01:24:02;;;;;;;39.05;23.63;;;8.90;99.90;;;;;;4949270;29;20271;-78
2021/05/02 01:26:29;;;;;;;42.42;26.30;;;8.90;99.90;;;;;;4946462;29;20118;-76
2021/05/02 01:28:57;;;;;;;38.03;26.58;;;8.90;99.90;;;;;;4947305;29;20035;-78
2021/05/02 01:31:23;;;;;;;39.88;24.58;;;8.90;99.90;;;;;;4949042;29;20092;-78
2021/05/02 01:33:50;;;;;;;45.22;26.05;;;8.80;99.90;;;;;;4949563;29;20049;-77
2021/05/02 01:36:16;;;;;;;42.67;26.42;;;8.80;99.90;;;;;;4951269;29;20084;-78
2021/05/02 01:38:43;;;;;;;39.97;26.60;;;8.80;99.90;;;;;;4949355;29;20035;-78
2021/05/02 01:41:09;;;;;;;43.33;27.33;;;8.80;99.90;;;;;;4949931;29;20048;-77
2021/05/02 01:43:35;;;;;;;39.33;25.83;;;8.80;99.90;;;;;;4947362;29;20024;-77
2021/05/02 01:46:02;;;;;;;44.90;26.75;;;8.90;99.90;;;;;;4949320;29;20032;-77
2021/05/02 01:48:29;;;;;;;40.40;26.05;;;8.80;99.90;;;;;;4948682;29;20042;-77
2021/05/02 01:51:02;;;;;;;40.53;25.55;;;8.90;99.90;;;;;;4951431;29;20035;-78
2021/05/02 01:53:29;;;;;;;40.95;25.85;;;8.90;99.90;;;;;;4953051;29;20030;-77
2021/05/02 01:55:55;;;;;;;43.28;26.13;;;9.00;99.90;;;;;;4951405;29;20056;-78
2021/05/02 01:58:22;;;;;;;43.70;25.98;;;8.90;99.90;;;;;;4952589;29;20043;-76
2021/05/02 02:00:57;;;;;;;41.05;26.00;;;8.90;99.90;;;;;;4953786;29;20032;-79
2021/05/02 02:03:23;;;;;;;43.13;25.60;;;9.00;99.90;;;;;;4952825;29;20075;-77
2021/05/02 02:05:49;;;;;;;42.15;27.30;;;8.90;99.90;;;;;;4955462;29;20032;-78
2021/05/02 02:08:16;;;;;;;83.30;64.80;;;8.90;99.90;;;;;;4956722;29;20020;-77
2021/05/02 02:10:43;;;;;;;72.55;54.50;;;8.90;99.90;;;;;;4962802;29;20039;-78
2021/05/02 02:13:11;;;;;;;59.05;44.42;;;8.90;99.90;;;;;;4958245;29;20027;-77
2021/05/02 02:15:37;;;;;;;54.95;39.72;;;8.90;99.90;;;;;;4953262;29;20083;-78
2021/05/02 02:18:04;;;;;;;46.75;33.63;;;8.90;99.90;;;;;;4945534;29;20091;-77
2021/05/02 02:20:34;;;;;;;43.78;28.40;;;8.80;99.90;;;;;;4957053;29;20032;-78
2021/05/02 02:23:07;;;;;;;41.57;27.77;;;8.80;99.90;;;;;;4957074;29;20088;-78
2021/05/02 02:25:39;;;;;;;44.85;29.08;;;8.70;99.90;;;;;;4949540;29;20060;-78
2021/05/02 02:28:08;;;;;;;38.95;26.10;;;8.80;99.90;;;;;;4953687;29;20007;-77
2021/05/02 02:30:34;;;;;;;39.55;26.58;;;8.80;99.90;;;;;;4958483;29;20055;-78
2021/05/02 02:33:01;;;;;;;38.40;25.98;;;8.80;99.90;;;;;;4957750;29;20058;-78
2021/05/02 02:35:30;;;;;;;42.28;26.38;;;8.70;99.90;;;;;;4958154;29;20028;-76
2021/05/02 02:37:59;;;;;;;43.63;26.00;;;8.70;99.90;;;;;;4957257;29;20060;-78
2021/05/02 02:40:24;;;;;;;37.92;25.13;;;8.70;99.90;;;;;;4957882;29;20039;-77
2021/05/02 02:42:51;;;;;;;39.53;24.67;;;8.70;99.90;;;;;;4957851;29;20012;-78
2021/05/02 02:45:17;;;;;;;42.15;26.63;;;8.80;99.90;;;;;;4957135;29;20042;-78
2021/05/02 02:47:53;;;;;;;41.08;26.08;;;8.80;99.90;;;;;;4955602;29;20283;-78
2021/05/02 02:50:20;;;;;;;38.35;26.35;;;8.70;99.90;;;;;;4950315;29;20032;-78
2021/05/02 02:52:52;;;;;;;38.70;25.90;;;8.80;99.90;;;;;;4944217;29;20028;-78
2021/05/02 02:55:20;;;;;;;39.22;26.50;;;8.80;99.90;;;;;;4941981;29;20035;-77
2021/05/02 02:57:54;;;;;;;42.63;26.52;;;8.80;99.90;;;;;;4923000;29;20024;-78
2021/05/02 03:00:24;;;;;;;42.10;26.40;;;8.80;99.90;;;;;;4940558;29;20036;-78
2021/05/02 03:03:08;;;;;;;46.78;30.77;;;8.80;99.90;;;;;;4945581;29;20024;-77
2021/05/02 03:05:36;;;;;;;39.70;27.50;;;8.70;99.90;;;;;;4939564;29;20110;-78
2021/05/02 03:08:04;;;;;;;43.35;26.80;;;8.60;99.90;;;;;;4945497;29;20035;-78
2021/05/02 03:10:31;;;;;;;41.47;27.30;;;8.60;99.90;;;;;;4944440;29;20023;-77
2021/05/02 03:12:58;;;;;;;39.90;24.55;;;8.60;99.90;;;;;;4934433;29;20028;-78
2021/05/02 03:15:25;;;;;;;44.58;27.85;;;8.60;99.90;;;;;;4935106;29;20043;-77
2021/05/02 03:18:04;;;;;;;42.53;26.75;;;8.60;99.90;;;;;;4944123;29;20102;-78
2021/05/02 03:20:36;;;;;;;43.67;26.83;;;8.60;99.90;;;;;;4953215;28;20039;-78
2021/05/02 03:23:33;;;;;;;42.38;26.05;;;8.50;99.90;;;;;;4944651;29;20040;-78
2021/05/02 03:26:05;;;;;;;39.05;25.30;;;8.50;99.90;;;;;;4939637;29;20036;-78
2021/05/02 03:28:35;;;;;;;45.15;26.88;;;8.60;99.90;;;;;;4944727;29;20049;-78
2021/05/02 03:31:04;;;;;;;45.35;28.35;;;8.60;99.90;;;;;;4944976;29;20028;-78
2021/05/02 03:33:36;;;;;;;41.13;26.70;;;8.60;99.90;;;;;;4947790;29;20027;-77
2021/05/02 03:36:10;;;;;;;42.63;26.40;;;8.70;99.90;;;;;;4951649;29;20045;-78
2021/05/02 03:38:45;;;;;;;45.17;27.40;;;8.60;99.90;;;;;;4951185;29;20055;-78
2021/05/02 03:41:11;;;;;;;42.53;26.27;;;8.70;99.90;;;;;;4948370;29;20051;-78
2021/05/02 03:43:37;;;;;;;42.55;26.40;;;8.60;99.90;;;;;;4942101;29;20028;-80
2021/05/02 03:46:04;;;;;;;39.40;26.75;;;8.60;99.90;;;;;;4947010;29;20047;-78
2021/05/02 03:48:30;;;;;;;45.53;28.13;;;8.60;99.90;;;;;;4946026;29;20032;-79
2021/05/02 03:50:56;;;;;;;40.30;27.27;;;8.60;99.90;;;;;;4946256;29;20024;-77
2021/05/02 03:53:21;;;;;;;42.30;26.85;;;8.60;99.90;;;;;;4953050;28;20063;-78
2021/05/02 03:55:48;;;;;;;43.15;27.42;;;8.60;99.90;;;;;;4946485;29;20060;-77
2021/05/02 03:58:15;;;;;;;38.50;26.33;;;8.60;99.90;;;;;;4946758;29;20060;-76
2021/05/02 04:00:43;;;;;;;41.95;27.95;;;8.60;99.90;;;;;;4946573;29;20038;-77
2021/05/02 04:03:09;;;;;;;42.28;27.00;;;8.60;99.90;;;;;;4945949;29;20063;-78
2021/05/02 04:05:35;;;;;;;44.08;26.58;;;8.70;99.90;;;;;;4938140;29;20031;-78
2021/05/02 04:08:04;;;;;;;45.55;27.73;;;8.70;99.90;;;;;;4945574;29;20055;-77
2021/05/02 04:10:29;;;;;;;41.70;27.63;;;8.80;99.90;;;;;;4945884;29;20060;-78
2021/05/02 04:12:55;;;;;;;38.97;24.77;;;8.90;99.90;;;;;;4946371;29;20032;-78
2021/05/02 04:15:21;;;;;;;41.25;26.50;;;8.90;99.90;;;;;;4938582;29;20035;-77
2021/05/02 04:17:46;;;;;;;42.20;26.83;;;8.90;99.90;;;;;;4942134;29;20383;-78
2021/05/02 04:20:13;;;;;;;39.95;25.40;;;8.90;99.90;;;;;;4944409;29;20134;-77
2021/05/02 04:22:39;;;;;;;40.75;27.42;;;8.90;99.90;;;;;;4939532;29;20035;-78
2021/05/02 04:25:06;;;;;;;41.40;26.98;;;9.00;99.90;;;;;;4940978;29;20024;-78
2021/05/02 04:27:32;;;;;;;42.17;26.75;;;9.00;99.90;;;;;;4949470;28;20039;-78
2021/05/02 04:29:58;;;;;;;44.10;26.70;;;9.00;99.90;;;;;;4941988;29;20058;-78
2021/05/02 04:32:24;;;;;;;42.58;26.30;;;8.90;99.90;;;;;;4941945;29;20028;-78
2021/05/02 04:34:50;;;;;;;43.58;27.42;;;8.80;99.90;;;;;;4943197;29;20057;-76
2021/05/02 04:37:16;;;;;;;38.83;25.55;;;8.80;99.90;;;;;;4939212;29;20028;-77
2021/05/02 04:39:41;;;;;;;46.63;28.10;;;8.90;99.90;;;;;;4944501;29;20036;-80
2021/05/02 04:42:08;;;;;;;42.58;26.45;;;8.80;99.90;;;;;;4944053;29;20044;-78
2021/05/02 04:44:33;;;;;;;39.25;26.60;;;8.70;99.90;;;;;;4946528;29;20036;-79
2021/05/02 04:46:59;;;;;;;42.25;26.70;;;8.70;99.90;;;;;;4944612;29;20083;-79
2021/05/02 04:49:25;;;;;;;41.40;25.73;;;8.80;99.90;;;;;;4947013;29;20034;-78
2021/05/02 04:51:51;;;;;;;41.78;26.67;;;8.70;99.90;;;;;;4945219;29;20091;-78
2021/05/02 04:54:20;;;;;;;41.45;26.40;;;8.70;99.90;;;;;;4945580;29;20038;-79
2021/05/02 04:56:47;;;;;;;41.78;25.80;;;8.70;99.90;;;;;;4942646;29;20039;-78
2021/05/02 04:59:13;;;;;;;40.13;25.33;;;8.60;99.90;;;;;;4944546;29;20050;-78
2021/05/02 05:01:42;;;;;;;39.10;25.45;;;8.70;99.90;;;;;;4942508;29;20087;-78
2021/05/02 05:04:08;;;;;;;41.60;26.42;;;8.80;99.90;;;;;;4944855;29;20055;-77
2021/05/02 05:06:35;;;;;;;36.60;25.02;;;8.80;99.90;;;;;;4945331;29;20039;-80
2021/05/02 05:09:02;;;;;;;37.35;25.20;;;8.90;99.90;;;;;;4946407;29;20034;-78
2021/05/02 05:11:28;;;;;;;42.75;25.67;;;8.90;99.90;;;;;;4946916;29;20032;-78
2021/05/02 05:13:57;;;;;;;36.17;24.58;;;9.00;99.90;;;;;;4945654;29;20557;-78
2021/05/02 05:16:23;;;;;;;37.63;24.55;;;8.90;99.90;;;;;;4945291;29;20036;-78
2021/05/02 05:18:52;;;;;;;38.45;25.65;;;9.00;99.90;;;;;;4950460;29;20056;-80
2021/05/02 05:21:21;;;;;;;36.67;24.60;;;9.00;99.90;;;;;;4958642;28;20039;-79
2021/05/02 05:23:50;;;;;;;41.30;25.55;;;9.10;99.90;;;;;;4946020;29;20116;-78
2021/05/02 05:26:16;;;;;;;36.92;25.38;;;;;;;;;;4945681;29;20119;-79
2021/05/02 05:28:46;;;;;;;36.65;23.52;;;;;;;;;;4941377;29;20043;-75
2021/05/02 05:31:21;;;;;;;36.20;24.45;;;;;;;;;;4936640;29;20031;-75
2021/05/02 05:33:52;;;;;;;36.50;23.38;;;;;;;;;;4935654;29;20079;-74
2021/05/02 05:36:18;;;;;;;37.25;24.00;;;9.20;99.90;;;;;;4941504;29;20040;-74
2021/05/02 05:38:44;;;;;;;39.85;25.65;;;;;;;;;;4940752;29;20055;-74
2021/05/02 05:41:10;;;;;;;37.35;24.80;;;9.20;99.90;;;;;;4941144;29;20023;-74
2021/05/02 05:43:35;;;;;;;32.63;23.15;;;9.20;99.90;;;;;;4945576;29;20032;-77
2021/05/02 05:46:04;;;;;;;34.40;22.58;;;9.20;99.90;;;;;;4941989;29;20140;-74
2021/05/02 05:48:32;;;;;;;35.30;21.92;;;9.20;99.90;;;;;;4941771;29;20024;-74
2021/05/02 05:50:57;;;;;;;35.35;23.60;;;9.20;99.90;;;;;;4941218;29;20031;-74
2021/05/02 05:53:23;;;;;;;33.90;22.45;;;9.20;99.90;;;;;;4942215;29;20113;-75
2021/05/02 05:55:49;;;;;;;48.40;32.33;;;9.20;99.90;;;;;;4943338;29;20063;-71
2021/05/02 05:58:14;;;;;;;119.70;81.80;;;9.30;99.90;;;;;;4941286;29;20608;-72
2021/05/02 06:00:40;;;;;;;148.90;100.22;;;9.40;99.90;;;;;;4944717;29;20028;-76
2021/05/02 06:03:06;;;;;;;33.13;22.73;;;9.30;99.90;;;;;;4943995;29;20040;-75
2021/05/02 06:05:32;;;;;;;29.98;21.75;;;9.30;99.90;;;;;;4940341;29;20468;-73
2021/05/02 06:07:58;;;;;;;31.70;21.73;;;9.20;99.90;;;;;;4939136;29;20038;-73
2021/05/02 06:10:23;;;;;;;31.20;22.10;;;9.20;99.90;;;;;;4942242;29;20023;-73
2021/05/02 06:12:49;;;;;;;31.45;21.55;;;9.20;99.90;;;;;;4940734;29;20024;-73
2021/05/02 06:15:14;;;;;;;31.70;21.48;;;9.30;99.90;;;;;;4944683;29;20024;-74
2021/05/02 06:17:41;;;;;;;32.58;21.85;;;9.30;99.90;;;;;;4947512;29;20096;-73
2021/05/02 06:20:07;;;;;;;31.58;21.88;;;9.40;99.90;;;;;;4942988;29;20088;-74
2021/05/02 06:22:32;;;;;;;28.90;21.25;;;9.40;99.90;;;;;;4936586;29;20032;-73
2021/05/02 06:24:58;;;;;;;31.38;21.00;;;9.40;99.90;;;;;;4929361;29;20501;-72
2021/05/02 06:27:24;;;;;;;28.90;21.05;;;9.40;99.90;;;;;;4930805;29;20036;-73
2021/05/02 06:29:50;;;;;;;32.08;21.25;;;9.60;99.90;;;;;;4930398;29;20520;-74
2021/05/02 06:32:15;;;;;;;29.85;20.55;;;9.50;99.90;;;;;;4932880;29;20079;-74
2021/05/02 06:34:43;;;;;;;30.38;19.75;;;9.50;99.90;;;;;;4931628;29;20098;-73
2021/05/02 06:37:09;;;;;;;29.23;20.13;;;9.50;99.90;;;;;;4929744;29;20087;-73
2021/05/02 06:39:35;;;;;;;30.40;20.48;;;9.50;99.90;;;;;;4928825;29;20040;-73
2021/05/02 06:42:01;;;;;;;31.98;20.45;;;9.60;99.90;;;;;;4932059;29;20035;-73
2021/05/02 06:44:26;;;;;;;28.45;19.67;;;9.60;99.90;;;;;;4930790;29;20067;-74
2021/05/02 06:46:53;;;;;;;31.65;20.30;;;9.60;99.90;;;;;;4927447;29;20028;-73
2021/05/02 06:49:20;;;;;;;28.50;19.35;;;9.70;99.90;;;;;;4924409;29;20040;-72
2021/05/02 06:51:46;;;;;;;24.60;18.65;;;9.70;99.90;;;;;;4920618;29;20022;-73
2021/05/02 06:54:12;;;;;;;26.65;19.70;;;9.60;99.90;;;;;;4923866;29;20028;-74
2021/05/02 06:56:37;;;;;;;28.75;19.90;;;9.50;99.90;;;;;;4927239;29;20398;-73
2021/05/02 06:59:03;;;;;;;30.20;22.15;;;9.60;99.90;;;;;;4925385;29;20032;-73
2021/05/02 07:01:29;;;;;;;28.17;19.35;;;9.30;99.90;;;;;;4923841;29;20040;-73
2021/05/02 07:03:55;;;;;;;27.70;19.08;;;9.40;99.90;;;;;;4926947;29;20052;-73
2021/05/02 07:06:21;;;;;;;27.30;19.60;;;9.40;99.90;;;;;;4923942;29;20036;-73
2021/05/02 07:08:47;;;;;;;27.30;19.63;;;9.30;99.90;;;;;;4926224;29;20551;-73
2021/05/02 07:11:15;;;;;;;30.65;19.42;;;9.40;99.90;;;;;;4924477;29;20082;-73
2021/05/02 07:13:40;;;;;;;30.27;20.15;;;9.60;99.90;;;;;;4924058;29;20039;-72
2021/05/02 07:16:08;;;;;;;28.25;19.27;;;9.60;99.90;;;;;;4925057;29;20119;-73
2021/05/02 07:18:38;;;;;;;24.92;19.10;;;9.70;99.90;;;;;;4925870;29;20040;-74
2021/05/02 07:21:05;;;;;;;32.10;20.83;;;9.70;99.90;;;;;;4926763;29;20435;-74
2021/05/02 07:23:30;;;;;;;28.52;20.30;;;9.80;99.90;;;;;;4945592;29;20043;-72
2021/05/02 07:25:56;;;;;;;29.48;20.95;;;9.90;99.90;;;;;;4948579;29;20035;-73
2021/05/02 07:28:21;;;;;;;29.48;20.90;;;9.90;99.90;;;;;;4944269;29;20081;-74
2021/05/02 07:30:48;;;;;;;28.92;19.88;;;10.10;99.90;;;;;;4945032;29;20087;-74
2021/05/02 07:33:13;;;;;;;27.35;19.88;;;10.10;99.90;;;;;;4944009;29;20537;-74
2021/05/02 07:35:39;;;;;;;30.17;19.67;;;10.20;99.90;;;;;;4942293;29;20047;-74
2021/05/02 07:38:05;;;;;;;25.63;19.42;;;10.10;99.90;;;;;;4945832;29;20032;-75
2021/05/02 07:40:31;;;;;;;26.27;20.20;;;10.20;99.90;;;;;;4939301;29;20032;-74
2021/05/02 07:42:56;;;;;;;25.95;19.73;;;10.20;99.90;;;;;;4942793;29;20030;-74
2021/05/02 07:45:22;;;;;;;26.40;21.15;;;10.30;99.90;;;;;;4940513;29;20119;-73
2021/05/02 07:47:48;;;;;;;23.95;17.40;;;10.30;99.90;;;;;;4940794;29;20023;-72
2021/05/02 07:50:14;;;;;;;24.38;18.40;;;10.10;99.90;;;;;;4939801;29;20036;-74
2021/05/02 07:52:42;;;;;;;24.40;19.98;;;10.20;99.90;;;;;;4939603;29;20035;-73
2021/05/02 07:55:08;;;;;;;28.30;19.52;;;10.10;99.90;;;;;;4939901;29;20042;-73
2021/05/02 07:57:34;;;;;;;28.08;18.42;;;10.00;99.90;;;;;;4939285;29;20073;-73
2021/05/02 08:00:00;;;;;;;27.98;18.20;;;9.90;99.90;;;;;;4940707;29;20023;-73
2021/05/02 08:02:25;;;;;;;29.85;19.23;;;9.90;99.90;;;;;;4938701;29;20020;-73
2021/05/02 08:04:51;;;;;;;24.42;18.75;;;9.70;99.90;;;;;;4937800;29;20497;-73
2021/05/02 08:07:20;;;;;;;27.08;19.85;;;9.80;99.90;;;;;;4942248;29;20058;-74
2021/05/02 08:09:46;;;;;;;24.20;18.83;;;9.80;99.90;;;;;;4939267;29;20026;-73
2021/05/02 08:12:11;;;;;;;26.17;20.02;;;9.80;99.90;;;;;;4936196;29;20023;-73
2021/05/02 08:14:37;;;;;;;25.90;18.90;;;9.80;99.90;;;;;;4938186;29;20051;-73
2021/05/02 08:17:02;;;;;;;27.13;20.60;;;9.80;99.90;;;;;;4938938;29;20028;-74
2021/05/02 08:19:29;;;;;;;23.80;18.38;;;9.70;99.90;;;;;;4939904;29;20061;-73
2021/05/02 08:22:03;;;;;;;27.40;20.48;;;9.60;99.90;;;;;;4939683;29;20063;-75
2021/05/02 08:24:29;;;;;;;26.13;20.33;;;9.50;99.90;;;;;;4937617;29;20028;-73
2021/05/02 08:26:55;;;;;;;26.80;19.92;;;9.50;99.90;;;;;;4936191;29;20089;-73
2021/05/02 08:29:21;;;;;;;29.35;19.88;;;9.40;99.90;;;;;;4941519;29;20027;-73
2021/05/02 08:31:46;;;;;;;28.60;21.50;;;9.40;99.90;;;;;;4941542;29;20035;-74
2021/05/02 08:34:12;;;;;;;28.90;19.77;;;9.50;99.90;;;;;;4941678;29;20031;-73
2021/05/02 08:36:37;;;;;;;28.10;20.13;;;9.70;99.90;;;;;;4940540;29;20066;-73
2021/05/02 08:39:04;;;;;;;27.83;20.88;;;9.60;99.90;;;;;;4941531;29;20051;-74
2021/05/02 08:41:29;;;;;;;28.73;21.23;;;9.60;99.90;;;;;;4945184;29;20024;-73
2021/05/02 08:43:56;;;;;;;28.55;20.75;;;9.50;99.90;;;;;;4941462;29;20035;-73
2021/05/02 08:46:23;;;;;;;27.77;20.98;;;9.70;99.90;;;;;;4922760;29;20020;-74
2021/05/02 08:48:49;;;;;;;27.85;20.63;;;9.80;99.90;;;;;;4942142;29;20096;-73
2021/05/02 08:51:15;;;;;;;26.63;21.15;;;9.70;99.90;;;;;;4945070;29;20059;-72
2021/05/02 08:53:42;;;;;;;31.48;23.42;;;9.70;99.90;;;;;;4944754;29;20419;-73
2021/05/02 08:56:08;;;;;;;33.50;22.63;;;9.90;99.90;;;;;;4943205;29;20028;-74
2021/05/02 08:58:33;;;;;;;29.40;22.75;;;9.90;99.90;;;;;;4947696;29;20050;-74
2021/05/02 09:01:01;;;;;;;28.52;22.38;;;9.90;99.90;;;;;;4944470;29;20032;-74
2021/05/02 09:03:44;;;;;;;29.02;23.52;;;9.90;99.90;;;;;;4944816;29;20039;-74
2021/05/02 09:06:24;;;;;;;31.15;22.40;;;10.20;99.90;;;;;;4946115;29;20035;-74
2021/05/02 09:08:52;;;;;;;28.38;22.77;;;10.20;99.90;;;;;;4946178;29;20555;-73
2021/05/02 09:11:35;;;;;;;30.05;21.30;;;10.00;99.90;;;;;;4945785;29;20051;-73
2021/05/02 09:14:07;;;;;;;30.60;21.67;;;9.80;99.90;;;;;;4945512;29;20035;-75
2021/05/02 09:16:51;;;;;;;32.25;23.65;;;9.90;99.90;;;;;;4949568;29;20043;-74
2021/05/02 09:19:17;;;;;;;28.25;22.05;;;10.00;99.90;;;;;;4941965;29;20027;-74
2021/05/02 09:21:43;;;;;;;30.10;23.05;;;10.20;99.90;;;;;;4943635;29;20036;-75
2021/05/02 09:24:27;;;;;;;26.23;20.80;;;10.40;99.90;;;;;;4942740;29;20495;-75
2021/05/02 09:27:05;;;;;;;29.58;21.20;;;10.40;99.90;;;;;;4938438;29;20114;-75
2021/05/02 09:29:31;;;;;;;29.85;21.95;;;10.30;99.90;;;;;;4941754;29;20241;-77
2021/05/02 09:31:58;;;;;;;41.72;31.15;;;10.10;99.90;;;;;;4942733;29;20027;-75
2021/05/02 09:34:23;;;;;;;27.00;21.65;;;10.10;99.90;;;;;;4943195;29;20144;-76
2021/05/02 09:37:02;;;;;;;28.15;22.50;;;10.00;99.90;;;;;;4941644;29;20048;-78
2021/05/02 09:39:53;;;;;;;28.23;21.63;;;9.80;99.90;;;;;;4938874;29;20034;-76
2021/05/02 09:42:35;;;;;;;31.52;24.13;;;9.80;99.90;;;;;;4936815;29;20027;-77
2021/05/02 09:45:03;;;;;;;28.45;22.02;;;10.00;99.90;;;;;;4938612;29;20039;-76
2021/05/02 09:47:30;;;;;;;29.40;22.80;;;10.20;99.90;;;;;;4938011;29;20371;-76
2021/05/02 09:50:21;;;;;;;30.40;21.92;;;10.20;99.90;;;;;;4940557;29;20102;-76
2021/05/02 09:52:56;;;;;;;29.10;23.87;;;10.20;99.90;;;;;;4935959;29;20048;-76
2021/05/02 09:55:32;;;;;;;29.30;22.30;;;10.30;99.90;;;;;;4940140;29;20044;-76
2021/05/02 09:58:04;;;;;;;30.63;22.15;;;10.50;99.90;;;;;;4937552;29;20036;-76
2021/05/02 10:00:54;;;;;;;32.42;22.52;;;10.80;99.90;;;;;;4941343;29;20027;-76
2021/05/02 10:03:20;;;;;;;28.88;23.23;;;11.00;99.90;;;;;;4938156;29;20035;-76
2021/05/02 10:06:10;;;;;;;30.77;22.67;;;11.00;99.90;;;;;;4940469;29;20088;-76
2021/05/02 10:08:42;;;;;;;35.63;23.27;;;10.70;99.90;;;;;;4935441;29;20046;-76
2021/05/02 10:11:10;;;;;;;29.63;23.75;;;10.80;99.90;;;;;;4940511;29;20024;-77
2021/05/02 10:13:38;;;;;;;29.33;22.25;;;10.70;99.90;;;;;;4940752;29;20104;-76
2021/05/02 10:16:05;;;;;;;26.92;22.23;;;10.90;99.90;;;;;;4941611;29;20051;-76
2021/05/02 10:18:34;;;;;;;30.77;22.65;;;10.90;99.90;;;;;;4938666;29;20067;-76
2021/05/02 10:21:01;;;;;;;26.67;21.48;;;10.90;99.90;;;;;;4939859;29;20027;-76
2021/05/02 10:23:27;;;;;;;29.42;23.05;;;11.00;99.90;;;;;;4924456;29;540579;-76
2021/05/02 10:25:56;;;;;;;29.48;21.25;;;11.10;99.90;;;;;;4934401;29;20040;-76
2021/05/02 10:28:26;;;;;;;28.95;22.70;;;11.10;99.90;;;;;;4946230;29;20107;-74
2021/05/02 10:30:56;;;;;;;27.48;21.75;;;11.10;99.90;;;;;;4944976;29;20024;-75
2021/05/02 10:33:33;;;;;;;27.35;21.70;;;11.10;99.90;;;;;;4945867;29;20024;-75
2021/05/02 10:36:10;;;;;;;28.35;22.23;;;11.30;99.90;;;;;;4944583;29;20054;-76
2021/05/02 10:38:53;;;;;;;26.35;21.17;;;11.50;99.90;;;;;;4943832;29;20095;-76
2021/05/02 10:41:45;;;;;;;26.25;20.65;;;12.00;99.90;;;;;;4940278;28;20119;-74
2021/05/02 10:44:13;;;;;;;23.38;20.52;;;11.90;99.90;;;;;;4923750;29;20036;-75
2021/05/02 10:46:45;;;;;;;26.17;19.60;;;12.20;99.90;;;;;;4944797;29;20457;-76
2021/05/02 10:49:31;;;;;;;25.80;21.42;;;12.20;99.90;;;;;;4944097;29;20114;-76
2021/05/02 10:52:27;;;;;;;27.58;20.92;;;12.00;99.90;;;;;;4940825;29;20060;-75
2021/05/02 10:55:07;;;;;;;24.42;18.83;;;12.10;99.90;;;;;;4946409;29;20083;-76
2021/05/02 10:57:34;;;;;;;23.40;19.33;;;12.20;99.90;;;;;;4945079;29;20035;-75
2021/05/02 11:00:04;;;;;;;22.75;18.13;;;12.20;99.90;;;;;;4948382;29;20028;-75
2021/05/02 11:02:57;;;;;;;23.73;18.45;;;11.90;99.90;;;;;;4942347;29;20027;-75
2021/05/02 11:05:22;;;;;;;22.80;18.70;;;12.80;99.90;;;;;;4937618;29;20032;-75
2021/05/02 11:07:56;;;;;;;22.50;18.02;;;12.10;99.90;;;;;;4939819;29;20119;-75
2021/05/02 11:10:22;;;;;;;22.75;18.20;;;12.30;99.90;;;;;;4938923;29;20106;-76
2021/05/02 11:12:48;;;;;;;22.77;18.27;;;12.30;99.90;;;;;;4935012;29;20024;-76
2021/05/02 11:15:26;;;;;;;21.77;18.48;;;12.30;99.90;;;;;;4938842;29;20035;-76
2021/05/02 11:17:55;;;;;;;20.25;16.58;;;12.40;99.90;;;;;;4936609;29;20035;-75
2021/05/02 11:20:47;;;;;;;22.00;17.42;;;12.40;99.90;;;;;;4937902;29;20024;-75
2021/05/02 11:23:14;;;;;;;19.00;16.27;;;12.50;99.90;;;;;;4939355;29;20083;-76
2021/05/02 11:25:42;;;;;;;19.70;16.55;;;12.30;99.90;;;;;;4940235;29;20095;-75
2021/05/02 11:28:10;;;;;;;22.52;16.58;;;12.30;99.90;;;;;;4939462;29;20052;-76
2021/05/02 11:30:47;;;;;;;19.38;16.67;;;12.10;99.90;;;;;;4934496;29;20032;-75
2021/05/02 11:33:22;;;;;;;23.00;16.92;;;12.00;99.90;;;;;;4944590;29;20023;-76
2021/05/02 11:35:52;;;;;;;23.67;18.90;;;12.00;99.90;;;;;;4942792;29;20036;-75
2021/05/02 11:38:20;;;;;;;20.23;16.95;;;12.10;99.90;;;;;;4935655;29;20047;-74
2021/05/02 11:40:46;;;;;;;18.77;16.15;;;12.20;99.90;;;;;;4934434;29;20558;-74
2021/05/02 11:43:16;;;;;;;21.83;16.45;;;12.30;99.90;;;;;;4939155;29;20042;-74
2021/05/02 11:45:47;;;;;;;19.23;16.65;;;12.40;99.90;;;;;;4938123;29;20035;-76
2021/05/02 11:48:28;;;;;;;21.92;17.63;;;12.50;99.90;;;;;;4943083;29;20119;-76
2021/05/02 11:50:58;;;;;;;19.45;14.93;;;12.40;99.90;;;;;;4938049;29;20028;-76
2021/05/02 11:53:30;;;;;;;20.33;16.23;;;12.30;99.90;;;;;;4941843;29;20036;-76
2021/05/02 11:55:58;;;;;;;21.77;16.85;;;12.20;99.90;;;;;;4950782;28;20051;-75
2021/05/02 11:58:24;;;;;;;23.25;17.20;;;12.30;99.90;;;;;;4935744;29;20036;-74
2021/05/02 12:00:51;;;;;;;22.02;18.42;;;12.20;99.90;;;;;;4944960;29;20038;-75
2021/05/02 12:03:35;;;;;;;25.27;18.35;;;12.20;99.90;;;;;;4933153;29;20046;-75
2021/05/02 12:06:07;;;;;;;21.40;17.67;;;12.20;99.90;;;;;;4942933;29;20035;-76
2021/05/02 12:08:33;;;;;;;165.13;111.75;;;12.00;99.90;;;;;;4944089;29;20028;-74
2021/05/02 12:11:02;;;;;;;32.17;24.95;;;12.10;99.90;;;;;;4938719;29;20034;-75
2021/05/02 12:13:44;;;;;;;28.13;21.88;;;12.00;99.90;;;;;;4936661;29;20039;-73
2021/05/02 12:16:11;;;;;;;24.83;19.52;;;12.10;99.90;;;;;;4935160;29;20111;-74
2021/05/02 12:18:49;;;;;;;23.90;18.30;;;12.00;99.90;;;;;;4938183;29;20059;-73
2021/05/02 12:21:24;;;;;;;22.33;18.13;;;11.90;99.90;;;;;;4928653;29;20062;-75
2021/05/02 12:23:50;;;;;;;22.98;18.50;;;12.10;99.90;;;;;;4933356;29;20134;-72
2021/05/02 12:26:17;;;;;;;24.10;18.45;;;12.00;99.90;;;;;;4935548;29;20462;-77
2021/05/02 12:28:43;;;;;;;23.42;16.45;;;11.90;99.90;;;;;;4937652;29;20149;-74
2021/05/02 12:33:45;;;;;;;21.20;17.23;;;12.00;99.90;;;;;;5782735;23;20048;-72
2021/05/02 12:36:14;;;;;;;22.85;18.10;;;12.30;99.90;;;;;;4979864;28;20113;-75
2021/05/02 12:38:41;;;;;;;23.75;17.52;;;12.60;99.90;;;;;;4984693;28;20110;-75
2021/05/02 12:41:17;;;;;;;22.70;17.67;;;12.80;99.90;;;;;;4977768;28;20283;-76
2021/05/02 12:43:46;;;;;;;20.48;16.55;;;12.90;99.90;;;;;;4988262;28;20019;-75
2021/05/02 12:46:32;;;;;;;24.80;19.17;;;12.50;99.90;;;;;;4978812;28;20050;-75
2021/05/02 12:49:07;;;;;;;21.80;17.00;;;12.70;99.90;;;;;;4986153;28;20090;-76